Time,TemperatureF,DewpointF,PressureIn,WindDirection,WindDirectionDegrees,WindSpeedMPH,WindSpeedGustMPH,Humidity,HourlyPrecipIn,Conditions,Clouds,dailyrainin,SoftwareType,DateUTC
2013-03-29 00:14:00,37.8,32.8,29.96,WNW,292,0.0,-999.0,82,-99.99,,,0.00,Acu-Link.com,2013-03-29 04:14:00,
2013-03-29 00:29:00,36.9,32.2,29.97,West,270,0.0,-999.0,83,-99.99,,,0.00,Acu-Link.com,2013-03-29 04:29:00,
2013-03-29 00:44:00,36.1,32.0,29.96,WNW,292,0.0,-999.0,85,-99.99,,,0.00,Acu-Link.com,2013-03-29 04:44:00,
2013-03-29 00:59:00,35.6,31.8,29.97,WNW,292,0.0,-999.0,86,-99.99,,,0.00,Acu-Link.com,2013-03-29 04:59:00,
2013-03-29 01:15:00,34.9,31.4,29.97,WNW,292,0.0,-999.0,87,-99.99,,,0.00,Acu-Link.com,2013-03-29 05:15:00,
2013-03-29 01:30:00,34.5,31.3,29.97,West,270,0.0,-999.0,88,-99.99,,,0.00,Acu-Link.com,2013-03-29 05:30:00,
2013-03-29 01:45:00,34.0,30.8,29.97,WNW,292,0.0,-999.0,88,-99.99,,,0.00,Acu-Link.com,2013-03-29 05:45:00,
2013-03-29 02:01:00,33.8,30.9,29.97,West,270,0.0,-999.0,89,-99.99,,,0.00,Acu-Link.com,2013-03-29 06:01:00,
2013-03-29 02:16:00,33.6,30.7,29.97,WNW,292,0.0,-999.0,89,-99.99,,,0.00,Acu-Link.com,2013-03-29 06:16:00,
2013-03-29 03:02:00,32.7,30.1,29.97,West,270,0.0,-999.0,90,-99.99,,,0.00,Acu-Link.com,2013-03-29 07:02:00,
2013-03-29 03:17:00,32.2,29.6,29.97,West,270,0.0,-999.0,90,-99.99,,,0.00,Acu-Link.com,2013-03-29 07:17:00,
2013-03-29 03:33:00,31.8,29.5,29.97,West,270,0.0,-999.0,91,-99.99,,,0.00,Acu-Link.com,2013-03-29 07:33:00,
2013-03-29 03:48:00,31.8,29.7,29.96,West,270,0.0,-999.0,92,-99.99,,,0.00,Acu-Link.com,2013-03-29 07:48:00,
2013-03-29 04:04:00,31.8,29.7,29.96,ESE,112,0.0,-999.0,92,-99.99,,,0.00,Acu-Link.com,2013-03-29 08:04:00,
2013-03-29 04:19:00,31.8,29.7,29.96,ESE,112,0.0,-999.0,92,-99.99,,,0.00,Acu-Link.com,2013-03-29 08:19:00,
2013-03-29 04:35:00,31.8,29.7,29.96,SSE,157,0.0,-999.0,92,-99.99,,,0.00,Acu-Link.com,2013-03-29 08:35:00,
2013-03-29 04:50:00,31.5,29.4,29.96,WSW,247,0.0,-999.0,92,-99.99,,,0.00,Acu-Link.com,2013-03-29 08:50:00,
2013-03-29 05:05:00,31.6,29.8,29.96,WNW,292,0.0,-999.0,93,-99.99,,,0.00,Acu-Link.com,2013-03-29 09:05:00,
2013-03-29 05:20:00,32.2,30.7,29.97,WNW,292,0.0,-999.0,94,-99.99,,,0.00,Acu-Link.com,2013-03-29 09:20:00,
2013-03-29 05:35:00,32.4,30.9,29.97,WNW,292,0.0,-999.0,94,-99.99,,,0.00,Acu-Link.com,2013-03-29 09:35:00,
2013-03-29 05:50:00,32.2,30.7,29.97,West,270,0.0,-999.0,94,-99.99,,,0.00,Acu-Link.com,2013-03-29 09:50:00,
2013-03-29 06:06:00,32.2,30.7,29.97,WNW,292,0.0,-999.0,94,-99.99,,,0.00,Acu-Link.com,2013-03-29 10:06:00,
2013-03-29 06:21:00,32.2,30.7,29.97,West,270,0.0,-999.0,94,-99.99,,,0.00,Acu-Link.com,2013-03-29 10:21:00,
2013-03-29 06:37:00,31.8,30.3,29.98,West,270,0.0,-999.0,94,-99.99,,,0.00,Acu-Link.com,2013-03-29 10:37:00,
2013-03-29 06:52:00,31.8,30.3,29.98,WNW,292,0.0,-999.0,94,-99.99,,,0.00,Acu-Link.com,2013-03-29 10:52:00,
2013-03-29 07:08:00,32.2,30.4,29.98,SSE,157,1.7,-999.0,93,-99.99,,,0.00,Acu-Link.com,2013-03-29 11:08:00,
2013-03-29 07:23:00,34.3,32.5,29.98,ESE,112,0.0,-999.0,93,-99.99,,,0.00,Acu-Link.com,2013-03-29 11:23:00,
2013-03-29 07:38:00,36.7,33.5,29.98,ESE,112,2.2,-999.0,88,-99.99,,,0.00,Acu-Link.com,2013-03-29 11:38:00,
2013-03-29 07:54:00,43.5,34.7,29.98,NE,45,1.7,-999.0,71,-99.99,,,0.00,Acu-Link.com,2013-03-29 11:54:00,
2013-03-29 08:09:00,44.4,34.9,29.98,NE,45,4.2,-999.0,69,-99.99,,,0.00,Acu-Link.com,2013-03-29 12:09:00,
2013-03-29 08:24:00,44.8,35.3,29.99,NE,45,4.7,-999.0,69,-99.99,,,0.00,Acu-Link.com,2013-03-29 12:24:00,
2013-03-29 08:39:00,45.3,35.4,29.98,WNW,292,4.7,-999.0,68,-99.99,,,0.00,Acu-Link.com,2013-03-29 12:39:00,
2013-03-29 08:55:00,45.9,35.6,29.98,ESE,112,2.2,-999.0,67,-99.99,,,0.00,Acu-Link.com,2013-03-29 12:55:00,
2013-03-29 09:10:00,46.0,35.7,29.99,NNE,22,5.3,-999.0,67,-99.99,,,0.00,Acu-Link.com,2013-03-29 13:10:00,
2013-03-29 09:25:00,46.4,36.0,29.99,ESE,112,2.7,-999.0,67,-99.99,,,0.00,Acu-Link.com,2013-03-29 13:25:00,
2013-03-29 09:56:00,47.1,35.9,29.99,South,180,1.7,-999.0,65,-99.99,,,0.00,Acu-Link.com,2013-03-29 13:56:00,
2013-03-29 10:11:00,47.1,35.6,29.99,NE,45,5.3,-999.0,64,-99.99,,,0.00,Acu-Link.com,2013-03-29 14:11:00,
2013-03-29 10:42:00,48.2,35.8,30.00,NE,45,2.2,-999.0,62,-99.99,,,0.00,Acu-Link.com,2013-03-29 14:42:00,
2013-03-29 10:57:00,48.0,36.0,30.00,NE,45,4.7,-999.0,63,-99.99,,,0.00,Acu-Link.com,2013-03-29 14:57:00,
2013-03-29 11:12:00,48.6,36.2,30.00,East,90,2.2,-999.0,62,-99.99,,,0.00,Acu-Link.com,2013-03-29 15:12:00,
2013-03-29 11:27:00,49.5,36.2,29.99,NNE,22,2.2,-999.0,60,-99.99,,,0.00,Acu-Link.com,2013-03-29 15:27:00,
2013-03-29 11:43:00,52.7,37.0,29.99,ESE,112,2.7,-999.0,55,-99.99,,,0.00,Acu-Link.com,2013-03-29 15:43:00,
2013-03-29 11:58:00,54.0,36.3,29.99,ESE,112,1.1,-999.0,51,-99.99,,,0.00,Acu-Link.com,2013-03-29 15:58:00,
2013-03-29 12:13:00,53.4,35.7,29.98,ENE,67,2.2,-999.0,51,-99.99,,,0.00,Acu-Link.com,2013-03-29 16:13:00,
2013-03-29 12:28:00,54.7,35.4,29.98,West,270,2.7,-999.0,48,-99.99,,,0.00,Acu-Link.com,2013-03-29 16:28:00,
2013-03-29 12:44:00,55.8,35.3,29.97,NNE,22,5.3,-999.0,46,-99.99,,,0.00,Acu-Link.com,2013-03-29 16:44:00,
2013-03-29 12:59:00,56.3,35.2,29.96,ENE,67,4.7,-999.0,45,-99.99,,,0.00,Acu-Link.com,2013-03-29 16:59:00,
2013-03-29 13:14:00,57.6,35.3,29.96,WNW,292,4.2,-999.0,43,-99.99,,,0.00,Acu-Link.com,2013-03-29 17:14:00,
2013-03-29 13:30:00,57.0,34.1,29.95,NE,45,5.8,-999.0,42,-99.99,,,0.00,Acu-Link.com,2013-03-29 17:30:00,
2013-03-29 13:45:00,56.5,34.3,29.94,ESE,112,3.7,-999.0,43,-99.99,,,0.00,Acu-Link.com,2013-03-29 17:45:00,
2013-03-29 14:00:00,57.6,32.8,29.95,WNW,292,5.3,-999.0,39,-99.99,,,0.00,Acu-Link.com,2013-03-29 18:00:00,
2013-03-29 14:15:00,55.8,33.6,29.93,East,90,4.7,-999.0,43,-99.99,,,0.00,Acu-Link.com,2013-03-29 18:15:00,
2013-03-29 14:31:00,55.0,32.3,29.93,ENE,67,1.7,-999.0,42,-99.99,,,0.00,Acu-Link.com,2013-03-29 18:31:00,
2013-03-29 14:46:00,57.9,33.1,29.92,West,270,5.3,-999.0,39,-99.99,,,0.00,Acu-Link.com,2013-03-29 18:46:00,
2013-03-29 15:01:00,56.5,33.1,29.93,South,180,3.7,-999.0,41,-99.99,,,0.00,Acu-Link.com,2013-03-29 19:01:00,
2013-03-29 15:17:00,55.0,31.1,29.93,NE,45,2.2,-999.0,40,-99.99,,,0.00,Acu-Link.com,2013-03-29 19:17:00,
2013-03-29 15:32:00,54.9,30.4,29.93,NE,45,3.7,-999.0,39,-99.99,,,0.00,Acu-Link.com,2013-03-29 19:32:00,
2013-03-29 15:48:00,55.9,31.9,29.93,SE,135,4.2,-999.0,40,-99.99,,,0.00,Acu-Link.com,2013-03-29 19:48:00,
2013-03-29 16:03:00,55.4,31.5,29.93,NE,45,3.7,-999.0,40,-99.99,,,0.00,Acu-Link.com,2013-03-29 20:03:00,
2013-03-29 16:18:00,55.0,31.7,29.93,WNW,292,3.7,-999.0,41,-99.99,,,0.00,Acu-Link.com,2013-03-29 20:18:00,
2013-03-29 16:33:00,55.9,31.3,29.92,West,270,2.2,-999.0,39,-99.99,,,0.00,Acu-Link.com,2013-03-29 20:33:00,
2013-03-29 16:49:00,57.6,32.2,29.93,NNE,22,4.7,-999.0,38,-99.99,,,0.00,Acu-Link.com,2013-03-29 20:49:00,
2013-03-29 17:04:00,55.4,32.1,29.93,WNW,292,3.7,-999.0,41,-99.99,,,0.00,Acu-Link.com,2013-03-29 21:04:00,
2013-03-29 17:19:00,54.3,31.7,29.93,ESE,112,2.7,-999.0,42,-99.99,,,0.00,Acu-Link.com,2013-03-29 21:19:00,
2013-03-29 17:34:00,53.6,32.2,29.94,NNE,22,0.0,-999.0,44,-99.99,,,0.00,Acu-Link.com,2013-03-29 21:34:00,
2013-03-29 17:49:00,52.3,32.1,29.95,NNE,22,3.7,-999.0,46,-99.99,,,0.00,Acu-Link.com,2013-03-29 21:49:00,
2013-03-29 18:05:00,52.2,32.1,29.95,West,270,1.7,-999.0,46,-99.99,,,0.00,Acu-Link.com,2013-03-29 22:05:00,
2013-03-29 18:20:00,52.2,31.5,29.94,West,270,2.2,-999.0,45,-99.99,,,0.00,Acu-Link.com,2013-03-29 22:20:00,
2013-03-29 18:35:00,51.6,31.5,29.94,ESE,112,2.7,-999.0,46,-99.99,,,0.00,Acu-Link.com,2013-03-29 22:35:00,
2013-03-29 18:50:00,50.7,32.2,29.94,NE,45,1.1,-999.0,49,-99.99,,,0.00,Acu-Link.com,2013-03-29 22:50:00,
2013-03-29 19:21:00,48.7,31.9,29.95,East,90,0.0,-999.0,52,-99.99,,,0.00,Acu-Link.com,2013-03-29 23:21:00,
2013-03-29 19:36:00,47.8,32.0,29.96,WNW,292,0.0,-999.0,54,-99.99,,,0.00,Acu-Link.com,2013-03-29 23:36:00,
2013-03-29 19:52:00,46.6,32.6,29.96,WNW,292,0.0,-999.0,58,-99.99,,,0.00,Acu-Link.com,2013-03-29 23:52:00,
2013-03-29 20:07:00,45.1,32.1,29.96,South,180,0.0,-999.0,60,-99.99,,,0.00,Acu-Link.com,2013-03-30 00:07:00,
2013-03-29 20:22:00,43.5,32.9,29.97,West,270,0.0,-999.0,66,-99.99,,,0.00,Acu-Link.com,2013-03-30 00:22:00,
2013-03-29 20:38:00,42.4,33.0,29.98,West,270,0.0,-999.0,69,-99.99,,,0.00,Acu-Link.com,2013-03-30 00:38:00,
2013-03-29 20:53:00,41.2,32.9,29.98,West,270,0.0,-999.0,72,-99.99,,,0.00,Acu-Link.com,2013-03-30 00:53:00,
2013-03-29 21:08:00,40.5,33.2,29.99,West,270,0.0,-999.0,75,-99.99,,,0.00,Acu-Link.com,2013-03-30 01:08:00,
2013-03-29 21:24:00,39.7,32.8,29.99,WNW,292,0.0,-999.0,76,-99.99,,,0.00,Acu-Link.com,2013-03-30 01:24:00,
2013-03-29 21:39:00,39.4,33.1,30.00,West,270,0.0,-999.0,78,-99.99,,,0.00,Acu-Link.com,2013-03-30 01:39:00,
2013-03-29 21:54:00,39.2,33.2,29.99,West,270,0.0,-999.0,79,-99.99,,,0.00,Acu-Link.com,2013-03-30 01:54:00,
2013-03-29 22:10:00,39.4,33.4,29.99,WNW,292,0.0,-999.0,79,-99.99,,,0.00,Acu-Link.com,2013-03-30 02:10:00,
2013-03-29 22:25:00,39.4,33.1,30.00,South,180,0.0,-999.0,78,-99.99,,,0.00,Acu-Link.com,2013-03-30 02:25:00,
2013-03-29 22:40:00,39.4,33.4,30.00,NW,315,0.0,-999.0,79,-99.99,,,0.00,Acu-Link.com,2013-03-30 02:40:00,
2013-03-29 22:55:00,39.4,33.8,30.00,South,180,0.0,-999.0,80,-99.99,,,0.00,Acu-Link.com,2013-03-30 02:55:00,
2013-03-29 23:26:00,39.4,33.8,29.99,West,270,0.0,-999.0,80,-99.99,,,0.00,Acu-Link.com,2013-03-30 03:26:00,
2013-03-29 23:57:00,38.5,33.2,30.00,West,270,0.0,-999.0,81,-99.99,,,0.00,Acu-Link.com,2013-03-30 03:57:00,